Time;durP1;ratioP1;P1;durP2;ratioP2;P2;SDS_P1;SDS_P2;PMS_P1;PMS_P2;Temp;Humidity;BMP_temperature;BMP_pressure;BME280_temperature;BME280_humidity;BME280_pressure;Samples;Min_cycle;Max_cycle;Signal;HPM_P1;HPM_P2
2023/12/30 00:01:57;;;;;;;7.30;3.40;;;;;;;;;;103756;1292;545943;-71
2023/12/30 00:05:34;;;;;;;8.70;3.70;;;;;;;;;;103769;1291;545334;-71
2023/12/30 00:09:11;;;;;;;7.50;3.30;;;;;;;;;;103680;1291;544685;-73
2023/12/30 00:12:49;;;;;;;7.20;2.80;;;;;;;;;;104106;1286;544903;-70
2023/12/30 00:16:29;;;;;;;8.00;3.20;;;;;;;;;;103818;1294;544851;-70
2023/12/30 00:20:25;;;;;;;9.10;4.10;;;;;;;;;;103672;1292;546529;-71
2023/12/30 00:24:03;;;;;;;12.10;4.90;;;;;;;;;;103710;1292;547641;-72
2023/12/30 00:27:19;;;;;;;15.20;8.00;;;;;;;;;;103764;1291;545069;-71
2023/12/30 00:30:56;;;;;;;10.10;5.20;;;;;;;;;;104079;1286;545930;-73
2023/12/30 00:34:34;;;;;;;7.70;3.20;;;;;;;;;;103866;1288;544687;-71
2023/12/30 00:38:11;;;;;;;5.30;2.00;;;;;;;;;;103707;1293;544802;-70
2023/12/30 00:41:49;;;;;;;5.30;2.20;;;;;;;;;;103873;1292;545701;-70
2023/12/30 00:45:26;;;;;;;5.80;2.30;;;;;;;;;;103790;1289;544893;-71
2023/12/30 00:49:04;;;;;;;4.40;1.90;;;;;;;;;;103915;1289;544902;-71
2023/12/30 00:52:41;;;;;;;5.70;2.30;;;;;;;;;;103698;1292;544963;-71
2023/12/30 00:56:19;;;;;;;4.40;1.70;;;;;;;;;;103891;1289;545920;-72
2023/12/30 00:59:55;;;;;;;5.50;1.90;;;;;;;;;;103823;1289;544895;-71
2023/12/30 01:03:34;;;;;;;3.90;1.60;;;;;;;;;;103880;1289;544777;-71
2023/12/30 01:07:11;;;;;;;6.50;2.50;;;;;;;;;;103603;1291;545334;-70
2023/12/30 01:10:49;;;;;;;3.20;1.30;;;;;;;;;;103813;1292;544964;-71
2023/12/30 01:14:26;;;;;;;5.50;1.80;;;;;;;;;;104027;1290;545020;-71
2023/12/30 01:18:03;;;;;;;4.60;1.80;;;;;;;;;;104012;1292;544619;-71
2023/12/30 01:21:40;;;;;;;4.60;1.60;;;;;;;;;;103844;1302;544821;-71
2023/12/30 01:25:18;;;;;;;5.60;2.30;;;;;;;;;;103859;1292;544991;-72
2023/12/30 01:28:55;;;;;;;6.10;2.20;;;;;;;;;;103700;1292;545228;-71
2023/12/30 01:32:33;;;;;;;4.80;1.70;;;;;;;;;;103822;1292;544707;-72
2023/12/30 01:36:11;;;;;;;4.10;1.70;;;;;;;;;;103800;1289;545501;-72
2023/12/30 01:39:44;;;;;;;4.60;1.70;;;;;;;;;;104139;1289;544930;-70
2023/12/30 01:43:26;;;;;;;4.50;1.80;;;;;;;;;;103816;1295;545066;-72
2023/12/30 01:47:04;;;;;;;4.60;1.80;;;;;;;;;;103809;1295;544708;-71
2023/12/30 01:50:40;;;;;;;4.90;1.60;;;;;;;;;;103504;1292;544999;-72
2023/12/30 01:54:19;;;;;;;5.30;1.50;;;;;;;;;;103894;1290;544764;-73
2023/12/30 01:57:55;;;;;;;3.90;1.30;;;;;;;;;;103746;1290;544962;-73
2023/12/30 02:01:33;;;;;;;5.30;1.90;;;;;;;;;;103853;1292;545360;-71
2023/12/30 02:05:10;;;;;;;5.30;2.20;;;;;;;;;;103818;1288;544736;-71
2023/12/30 02:08:48;;;;;;;3.90;1.90;;;;;;;;;;103809;1291;544742;-70
2023/12/30 02:12:25;;;;;;;4.40;1.60;;;;;;;;;;104186;1289;544793;-71
2023/12/30 02:16:03;;;;;;;4.50;1.80;;;;;;;;;;103818;1292;544853;-71
2023/12/30 02:19:40;;;;;;;4.50;1.80;;;;;;;;;;103763;1291;544829;-71
2023/12/30 02:23:18;;;;;;;5.60;2.10;;;;;;;;;;104229;1296;545095;-72
2023/12/30 02:26:55;;;;;;;6.00;2.40;;;;;;;;;;103718;1292;545514;-70
2023/12/30 02:30:32;;;;;;;3.90;1.50;;;;;;;;;;103760;1292;544984;-71
2023/12/30 02:34:10;;;;;;;5.80;1.60;;;;;;;;;;103823;1295;544956;-71
2023/12/30 02:37:47;;;;;;;4.70;1.80;;;;;;;;;;103904;1289;544795;-73
2023/12/30 02:41:27;;;;;;;3.70;1.20;;;;;;;;;;103889;1289;546314;-71
2023/12/30 02:45:03;;;;;;;3.40;1.10;;;;;;;;;;103697;1291;544854;-72
2023/12/30 02:48:40;;;;;;;3.10;0.90;;;;;;;;;;103833;1293;544990;-71
2023/12/30 02:52:17;;;;;;;2.90;1.00;;;;;;;;;;103701;1291;544998;-72
2023/12/30 02:55:55;;;;;;;4.30;1.30;;;;;;;;;;103911;1288;545961;-72
2023/12/30 02:59:32;;;;;;;3.40;1.10;;;;;;;;;;104069;1289;545302;-72
2023/12/30 03:03:10;;;;;;;3.10;1.10;;;;;;;;;;103740;1291;544815;-71
2023/12/30 03:06:47;;;;;;;3.10;1.10;;;;;;;;;;103799;1289;544942;-71
2023/12/30 03:10:25;;;;;;;2.10;0.80;;;;;;;;;;103789;1288;544838;-73
2023/12/30 03:14:02;;;;;;;5.50;2.00;;;;;;;;;;103744;1290;545092;-73
2023/12/30 03:17:45;;;;;;;4.70;1.70;;;;;;;;;;103708;1292;544697;-72
2023/12/30 03:21:18;;;;;;;2.70;1.20;;;;;;;;;;103865;1289;545033;-72
2023/12/30 03:24:54;;;;;;;3.70;1.30;;;;;;;;;;103801;1289;545194;-72
2023/12/30 03:28:32;;;;;;;3.20;1.40;;;;;;;;;;103786;1293;545678;-71
2023/12/30 03:32:09;;;;;;;2.80;1.20;;;;;;;;;;103749;1294;545470;-72
2023/12/30 03:35:47;;;;;;;4.20;1.30;;;;;;;;;;103835;1292;544994;-71
2023/12/30 03:39:24;;;;;;;4.80;1.50;;;;;;;;;;103809;1295;545181;-71
2023/12/30 03:43:04;;;;;;;4.00;1.30;;;;;;;;;;103658;1295;544956;-71
2023/12/30 03:46:40;;;;;;;3.60;1.40;;;;;;;;;;103776;1292;545133;-74
2023/12/30 03:50:17;;;;;;;3.00;1.20;;;;;;;;;;103894;1289;544725;-71
2023/12/30 03:53:54;;;;;;;2.40;1.10;;;;;;;;;;103761;1292;544600;-71
2023/12/30 03:57:32;;;;;;;2.40;1.00;;;;;;;;;;103939;1294;544740;-71
2023/12/30 04:01:09;;;;;;;1.70;0.80;;;;;;;;;;103863;1288;545168;-71
2023/12/30 04:04:47;;;;;;;3.50;0.80;;;;;;;;;;103820;1290;545927;-74
2023/12/30 04:08:24;;;;;;;1.90;0.70;;;;;;;;;;103851;1289;545546;-70
2023/12/30 04:12:01;;;;;;;2.60;0.60;;;;;;;;;;103844;1289;544779;-74
2023/12/30 04:15:38;;;;;;;2.70;0.70;;;;;;;;;;103756;1290;546265;-72
2023/12/30 04:19:16;;;;;;;1.30;0.70;;;;;;;;;;103918;1290;544960;-72
2023/12/30 04:22:54;;;;;;;1.70;0.60;;;;;;;;;;103807;1290;545129;-72
2023/12/30 04:26:27;;;;;;;1.80;0.70;;;;;;;;;;105407;1288;544930;-73
2023/12/30 04:30:09;;;;;;;1.90;0.60;;;;;;;;;;103699;1292;544919;-73
2023/12/30 04:33:47;;;;;;;1.80;0.60;;;;;;;;;;103744;1291;545710;-71
2023/12/30 04:37:24;;;;;;;1.50;0.70;;;;;;;;;;103626;1298;545577;-71
2023/12/30 04:41:01;;;;;;;1.90;0.70;;;;;;;;;;103887;1295;544886;-71
2023/12/30 04:44:35;;;;;;;3.20;0.90;;;;;;;;;;103901;1295;545863;-72
2023/12/30 04:48:16;;;;;;;2.30;0.80;;;;;;;;;;103781;1295;545839;-72
2023/12/30 04:51:54;;;;;;;3.00;0.90;;;;;;;;;;103781;1292;544797;-71
2023/12/30 04:55:31;;;;;;;3.20;1.20;;;;;;;;;;103793;1290;545664;-72
2023/12/30 04:59:09;;;;;;;4.90;1.70;;;;;;;;;;103644;1291;544939;-72
2023/12/30 05:02:46;;;;;;;4.10;1.30;;;;;;;;;;103819;1292;544869;-71
2023/12/30 05:06:23;;;;;;;6.40;2.40;;;;;;;;;;103803;1292;544947;-71
2023/12/30 05:10:01;;;;;;;5.50;1.90;;;;;;;;;;103877;1289;545418;-71
2023/12/30 05:13:38;;;;;;;7.80;3.00;;;;;;;;;;103843;1292;545498;-71
2023/12/30 05:17:16;;;;;;;8.20;2.80;;;;;;;;;;103888;1292;544810;-71
2023/12/30 05:20:53;;;;;;;11.50;4.10;;;;;;;;;;103763;1289;545886;-73
2023/12/30 05:24:31;;;;;;;9.70;3.50;;;;;;;;;;103772;1292;545144;-70
2023/12/30 05:28:08;;;;;;;8.90;3.20;;;;;;;;;;103730;1292;544939;-71
2023/12/30 05:31:45;;;;;;;10.10;3.30;;;;;;;;;;103773;1289;544842;-72
2023/12/30 05:35:23;;;;;;;9.40;3.20;;;;;;;;;;103609;1291;544893;-73
2023/12/30 05:38:57;;;;;;;8.10;2.70;;;;;;;;;;103910;1288;544778;-73
2023/12/30 05:42:44;;;;;;;8.50;3.30;;;;;;;;;;103561;1295;545805;-72
2023/12/30 05:46:16;;;;;;;9.50;4.30;;;;;;;;;;103854;1289;545273;-72
2023/12/30 05:49:53;;;;;;;7.60;3.50;;;;;;;;;;103734;1289;544997;-72
2023/12/30 05:53:32;;;;;;;6.90;2.80;;;;;;;;;;103850;1292;545076;-72
2023/12/30 05:57:08;;;;;;;5.60;1.80;;;;;;;;;;103660;1296;545347;-73
2023/12/30 06:00:45;;;;;;;4.60;1.20;;;;;;;;;;103878;1292;545743;-73
2023/12/30 06:04:23;;;;;;;3.70;1.40;;;;;;;;;;103704;1291;544765;-71
2023/12/30 06:08:01;;;;;;;4.80;1.50;;;;;;;;;;104147;1288;545205;-73
2023/12/30 06:11:38;;;;;;;4.50;1.50;;;;;;;;;;103714;1292;545433;-71
2023/12/30 06:15:16;;;;;;;3.90;1.50;;;;;;;;;;104015;1292;545661;-73
2023/12/30 06:18:52;;;;;;;4.50;1.70;;;;;;;;;;103902;1292;544756;-73
2023/12/30 06:22:27;;;;;;;7.60;2.90;;;;;;;;;;103879;1288;544822;-74
2023/12/30 06:26:08;;;;;;;2.50;0.70;;;;;;;;;;103698;1291;544920;-72
2023/12/30 06:29:47;;;;;;;4.10;0.80;;;;;;;;;;103958;1292;544790;-74
2023/12/30 06:33:23;;;;;;;2.40;0.80;;;;;;;;;;103913;1289;545491;-72
2023/12/30 06:37:00;;;;;;;2.30;0.70;;;;;;;;;;103776;1289;545052;-73
2023/12/30 06:40:38;;;;;;;2.80;0.60;;;;;;;;;;103741;1291;544680;-71
2023/12/30 06:44:16;;;;;;;2.40;0.80;;;;;;;;;;103778;1291;545506;-73
2023/12/30 06:47:48;;;;;;;1.50;0.60;;;;;;;;;;104036;1289;545033;-72
2023/12/30 06:51:30;;;;;;;5.60;1.60;;;;;;;;;;103930;1292;545255;-73
2023/12/30 06:55:08;;;;;;;4.00;1.30;;;;;;;;;;103588;1291;545049;-73
2023/12/30 06:58:45;;;;;;;3.30;1.10;;;;;;;;;;103983;1302;545289;-73
2023/12/30 07:02:22;;;;;;;6.10;1.50;;;;;;;;;;103777;1292;545048;-74
2023/12/30 07:06:00;;;;;;;5.20;1.50;;;;;;;;;;103748;1292;545319;-71
2023/12/30 07:09:38;;;;;;;3.60;0.70;;;;;;;;;;103743;1295;545432;-74
2023/12/30 07:13:11;;;;;;;2.20;0.50;;;;;;;;;;104138;1289;545688;-71
2023/12/30 07:16:52;;;;;;;2.60;0.60;;;;;;;;;;103797;1288;545006;-73
2023/12/30 07:20:30;;;;;;;3.60;1.00;;;;;;;;;;104431;1283;544948;-73
2023/12/30 07:24:03;;;;;;;6.10;1.90;;;;;;;;;;104022;1289;546060;-73
2023/12/30 07:27:45;;;;;;;4.30;1.50;;;;;;;;;;103735;1291;544822;-73
2023/12/30 07:31:21;;;;;;;6.30;2.80;;;;;;;;;;103818;1294;545590;-72
2023/12/30 07:34:59;;;;;;;5.00;2.20;;;;;;;;;;103846;1294;545130;-70
2023/12/30 07:38:37;;;;;;;3.80;1.40;;;;;;;;;;103854;1289;545601;-72
2023/12/30 07:42:16;;;;;;;4.30;1.60;;;;;;;;;;103788;1292;545421;-73
2023/12/30 07:45:52;;;;;;;3.40;0.90;;;;;;;;;;103872;1292;545463;-73
2023/12/30 07:49:29;;;;;;;4.10;1.30;;;;;;;;;;103852;1302;545681;-74
2023/12/30 07:53:07;;;;;;;3.60;0.80;;;;;;;;;;103896;1295;545665;-72
2023/12/30 07:56:44;;;;;;;3.60;0.90;;;;;;;;;;103900;1289;544954;-73
2023/12/30 08:00:21;;;;;;;2.00;0.60;;;;;;;;;;103665;1295;544822;-72
2023/12/30 08:04:00;;;;;;;1.30;0.60;;;;;;;;;;103929;1289;545024;-73
2023/12/30 08:07:36;;;;;;;1.70;0.40;;;;;;;;;;103869;1289;545535;-74
2023/12/30 08:11:14;;;;;;;3.10;0.90;;;;;;;;;;103786;1289;544998;-73
2023/12/30 08:14:52;;;;;;;10.70;4.00;;;;;;;;;;103777;1291;545024;-73
2023/12/30 08:18:30;;;;;;;20.30;11.10;;;;;;;;;;103611;1295;544993;-73
2023/12/30 08:22:06;;;;;;;8.00;3.90;;;;;;;;;;103939;1289;544873;-72
2023/12/30 08:25:44;;;;;;;3.90;1.70;;;;;;;;;;103779;1289;545311;-73
2023/12/30 08:29:21;;;;;;;9.70;3.90;;;;;;;;;;103832;1288;545075;-74
2023/12/30 08:33:03;;;;;;;6.60;1.90;;;;;;;;;;103854;1295;544860;-74
2023/12/30 08:36:36;;;;;;;4.80;1.90;;;;;;;;;;104565;1283;544961;-73
2023/12/30 08:40:14;;;;;;;7.50;3.30;;;;;;;;;;103822;1292;545483;-73
2023/12/30 08:43:57;;;;;;;13.20;9.00;;;;;;;;;;103694;1290;545149;-73
2023/12/30 08:47:35;;;;;;;12.00;7.50;;;;;;;;;;103686;1289;545007;-74
2023/12/30 08:51:06;;;;;;;5.50;2.40;;;;;;;;;;104006;1292;544831;-71
2023/12/30 08:54:49;;;;;;;6.60;3.10;;;;;;;;;;103709;1289;544918;-74
2023/12/30 08:58:30;;;;;;;5.70;2.20;;;;;;;;;;103800;1291;544939;-74
2023/12/30 09:01:58;;;;;;;6.40;2.20;;;;;;;;;;103983;1289;544943;-74
2023/12/30 09:05:36;;;;;;;6.50;2.10;;;;;;;;;;103685;1292;544887;-71
2023/12/30 09:09:11;;;;;;;5.70;1.90;;;;;;;;;;103918;1292;545490;-71
2023/12/30 09:12:52;;;;;;;5.50;2.10;;;;;;;;;;103976;1289;544984;-73
2023/12/30 09:16:29;;;;;;;7.90;3.60;;;;;;;;;;103824;1291;545354;-72
2023/12/30 09:20:07;;;;;;;7.90;3.10;;;;;;;;;;103662;1289;545508;-73
2023/12/30 09:23:44;;;;;;;7.70;2.90;;;;;;;;;;104052;1288;544781;-73
2023/12/30 09:27:21;;;;;;;8.80;3.80;;;;;;;;;;103754;1291;545769;-74
2023/12/30 09:30:59;;;;;;;10.50;5.00;;;;;;;;;;103874;1292;544979;-71
2023/12/30 09:34:36;;;;;;;10.60;3.90;;;;;;;;;;103720;1291;544836;-72
2023/12/30 09:38:14;;;;;;;6.80;1.90;;;;;;;;;;103822;1292;545052;-73
2023/12/30 09:41:52;;;;;;;7.40;1.40;;;;;;;;;;103965;1292;545764;-71
2023/12/30 09:45:38;;;;;;;3.40;0.90;;;;;;;;;;103610;1290;545380;-71
2023/12/30 09:49:07;;;;;;;6.40;1.50;;;;;;;;;;103839;1291;545487;-72
2023/12/30 09:52:44;;;;;;;4.60;1.20;;;;;;;;;;103621;1294;545761;-71
2023/12/30 09:56:21;;;;;;;7.40;2.00;;;;;;;;;;103768;1291;544915;-71
2023/12/30 10:00:00;;;;;;;5.10;1.10;;;;;;;;;;103621;1292;545360;-73
2023/12/30 10:03:36;;;;;;;5.90;1.90;;;;;;;;;;103917;1288;546074;-74
2023/12/30 10:07:16;;;;;;;6.60;1.80;;;;;;;;;;103680;1289;545005;-71
2023/12/30 10:10:53;;;;;;;5.50;1.40;;;;;;;;;;103856;1291;544881;-74
2023/12/30 10:14:29;;;;;;;4.90;1.80;;;;;;;;;;103878;1292;545070;-72
2023/12/30 10:18:07;;;;;;;9.70;4.50;;;;;;;;;;104020;1296;546067;-72
2023/12/30 10:21:44;;;;;;;6.30;2.50;;;;;;;;;;103870;1301;545347;-73
2023/12/30 10:25:21;;;;;;;7.00;2.80;;;;;;;;;;103658;1291;545898;-74
2023/12/30 10:28:59;;;;;;;6.50;3.30;;;;;;;;;;103824;1291;545627;-74
2023/12/30 10:32:36;;;;;;;4.30;1.20;;;;;;;;;;103991;1292;544811;-75
2023/12/30 10:36:13;;;;;;;4.20;1.30;;;;;;;;;;103964;1292;544795;-75
2023/12/30 10:39:48;;;;;;;5.20;1.50;;;;;;;;;;104156;1295;544875;-73
2023/12/30 10:43:34;;;;;;;5.00;1.80;;;;;;;;;;103691;1289;544757;-74
2023/12/30 10:47:08;;;;;;;5.60;1.60;;;;;;;;;;103990;1289;545545;-73
2023/12/30 10:50:42;;;;;;;6.50;1.70;;;;;;;;;;103748;1289;545152;-74
2023/12/30 10:54:27;;;;;;;3.80;0.90;;;;;;;;;;103816;1289;545151;-73
2023/12/30 10:58:06;;;;;;;5.40;1.30;;;;;;;;;;103818;1291;545019;-73
2023/12/30 11:01:38;;;;;;;5.20;1.30;;;;;;;;;;104089;1289;545766;-72
2023/12/30 11:05:14;;;;;;;5.40;1.40;;;;;;;;;;103877;1288;544740;-74
2023/12/30 11:09:07;;;;;;;4.60;1.30;;;;;;;;;;103893;1291;545236;-71
2023/12/30 11:12:32;;;;;;;6.00;1.90;;;;;;;;;;103892;1289;545084;-73
2023/12/30 11:16:15;;;;;;;7.40;1.60;;;;;;;;;;103972;1288;545701;-72
2023/12/30 11:19:47;;;;;;;4.90;1.20;;;;;;;;;;104029;1292;545435;-73
2023/12/30 11:23:24;;;;;;;6.90;1.90;;;;;;;;;;103988;1289;545523;-72
2023/12/30 11:27:01;;;;;;;5.10;1.60;;;;;;;;;;103883;1292;544899;-70
2023/12/30 11:30:39;;;;;;;4.80;1.30;;;;;;;;;;104281;1290;545096;-69
2023/12/30 11:34:16;;;;;;;17.50;7.40;;;;;;;;;;104846;1290;545074;-72
2023/12/30 11:37:55;;;;;;;8.40;2.60;;;;;;;;;;104672;1289;545210;-73
2023/12/30 11:41:31;;;;;;;7.60;3.00;;;;;;;;;;104997;1289;545176;-72
2023/12/30 11:45:09;;;;;;;11.10;5.60;;;;;;;;;;105078;1292;546277;-69
2023/12/30 11:48:46;;;;;;;10.10;4.80;;;;;;;;;;104951;1289;545603;-72
2023/12/30 11:52:24;;;;;;;7.40;3.00;;;;;;;;;;105104;1289;544714;-70
2023/12/30 11:56:02;;;;;;;7.30;2.80;;;;;;;;;;105196;1294;544986;-70
2023/12/30 11:59:39;;;;;;;5.90;1.50;;;;;;;;;;105106;1290;544847;-70
2023/12/30 12:03:16;;;;;;;7.00;2.10;;;;;;;;;;105700;1283;545085;-74
2023/12/30 12:06:53;;;;;;;5.10;1.80;;;;;;;;;;105414;1287;545336;-71
2023/12/30 12:10:33;;;;;;;6.00;2.00;;;;;;;;;;104146;1292;545576;-71
2023/12/30 12:14:10;;;;;;;5.80;1.70;;;;;;;;;;103882;1295;545463;-72
2023/12/30 12:18:07;;;;;;;5.80;1.70;;;;;;;;;;103668;1288;545490;-73
2023/12/30 12:21:24;;;;;;;7.50;1.80;;;;;;;;;;103943;1292;544852;-71
2023/12/30 12:25:02;;;;;;;7.60;2.00;;;;;;;;;;103969;1288;545814;-71
2023/12/30 12:28:39;;;;;;;18.80;8.30;;;;;;;;;;103861;1292;545110;-72
2023/12/30 12:32:22;;;;;;;8.10;2.90;;;;;;;;;;103794;1291;545116;-72
2023/12/30 12:35:53;;;;;;;13.00;6.70;;;;;;;;;;103738;1295;545089;-72
2023/12/30 12:39:26;;;;;;;8.90;4.60;;;;;;;;;;103799;1288;544955;-70
2023/12/30 12:43:07;;;;;;;11.20;4.90;;;;;;;;;;103832;1290;545025;-72
2023/12/30 12:46:46;;;;;;;9.60;4.90;;;;;;;;;;103581;1295;544968;-70
2023/12/30 12:50:22;;;;;;;9.50;2.90;;;;;;;;;;103751;1292;545338;-71
2023/12/30 12:54:01;;;;;;;8.50;3.60;;;;;;;;;;103940;1289;545297;-70
2023/12/30 12:57:38;;;;;;;8.40;3.40;;;;;;;;;;103880;1292;545107;-70
2023/12/30 13:01:16;;;;;;;9.50;4.90;;;;;;;;;;103910;1289;544979;-70
2023/12/30 13:04:50;;;;;;;8.60;3.60;;;;;;;;;;103848;1289;545892;-71
2023/12/30 13:08:31;;;;;;;39.60;18.50;;;;;;;;;;103698;1292;545671;-70
2023/12/30 13:12:08;;;;;;;31.80;16.20;;;;;;;;;;103846;1289;544792;-72
2023/12/30 13:15:45;;;;;;;8.40;3.10;;;;;;;;;;103580;1294;545399;-70
2023/12/30 13:19:23;;;;;;;7.40;2.40;;;;;;;;;;104067;1285;544856;-71
2023/12/30 13:23:03;;;;;;;7.50;2.30;;;;;;;;;;104305;1286;544840;-73
2023/12/30 13:26:38;;;;;;;5.60;1.80;;;;;;;;;;103672;1296;546215;-72
2023/12/30 13:30:18;;;;;;;6.40;1.60;;;;;;;;;;103917;1290;545989;-72
2023/12/30 13:33:54;;;;;;;6.40;1.50;;;;;;;;;;103747;1289;544999;-71
2023/12/30 13:37:31;;;;;;;4.80;1.70;;;;;;;;;;103850;1292;544650;-70
2023/12/30 13:41:07;;;;;;;6.50;2.10;;;;;;;;;;103870;1289;545636;-73
2023/12/30 13:44:46;;;;;;;6.10;1.60;;;;;;;;;;103851;1289;545527;-70
2023/12/30 13:52:02;;;;;;;6.30;1.70;;;;;;;;;;103811;1289;545121;-73
2023/12/30 13:55:43;;;;;;;6.50;2.40;;;;;;;;;;103593;1292;545360;-71
2023/12/30 13:59:23;;;;;;;9.30;3.70;;;;;;;;;;103697;1289;545291;-72
2023/12/30 14:02:53;;;;;;;9.20;4.20;;;;;;;;;;103835;1289;545306;-72
2023/12/30 14:06:35;;;;;;;6.80;2.00;;;;;;;;;;103735;1294;546074;-73
2023/12/30 14:10:12;;;;;;;8.40;2.90;;;;;;;;;;103984;1286;544783;-71
2023/12/30 14:13:47;;;;;;;5.70;1.70;;;;;;;;;;103759;1289;544837;-72
2023/12/30 14:17:23;;;;;;;5.40;1.80;;;;;;;;;;103736;1291;546254;-72
2023/12/30 14:20:59;;;;;;;24.80;11.70;;;;;;;;;;103767;1292;544711;-69
2023/12/30 14:24:36;;;;;;;15.30;5.90;;;;;;;;;;103966;1289;544747;-73
2023/12/30 14:28:14;;;;;;;8.00;3.00;;;;;;;;;;103771;1292;544766;-70
2023/12/30 14:31:55;;;;;;;6.80;2.10;;;;;;;;;;103963;1289;544821;-71
2023/12/30 14:35:30;;;;;;;5.70;1.70;;;;;;;;;;103824;1292;545293;-73
2023/12/30 14:39:08;;;;;;;24.90;14.50;;;;;;;;;;103722;1291;544758;-70
2023/12/30 14:42:44;;;;;;;16.40;6.90;;;;;;;;;;103736;1289;545091;-73
2023/12/30 14:46:22;;;;;;;28.60;15.00;;;;;;;;;;103652;1292;545713;-72
2023/12/30 14:50:00;;;;;;;17.20;11.20;;;;;;;;;;103790;1292;545009;-69
2023/12/30 14:53:37;;;;;;;15.80;9.10;;;;;;;;;;103737;1292;545061;-72
2023/12/30 14:57:10;;;;;;;16.20;7.60;;;;;;;;;;103924;1289;545059;-69
2023/12/30 15:00:48;;;;;;;9.40;3.90;;;;;;;;;;103791;1293;544910;-69
2023/12/30 15:04:29;;;;;;;15.80;8.10;;;;;;;;;;103875;1292;545233;-74
2023/12/30 15:08:03;;;;;;;13.10;5.30;;;;;;;;;;103999;1289;546064;-73
2023/12/30 15:11:45;;;;;;;11.80;4.10;;;;;;;;;;103872;1289;544816;-73
2023/12/30 15:15:22;;;;;;;40.30;26.10;;;;;;;;;;103825;1294;545507;-73
2023/12/30 15:18:59;;;;;;;16.40;8.30;;;;;;;;;;103998;1289;546026;-72
2023/12/30 15:22:37;;;;;;;66.90;36.10;;;;;;;;;;103809;1291;544787;-74
2023/12/30 15:26:20;;;;;;;35.00;20.00;;;;;;;;;;103858;1289;544841;-73
2023/12/30 15:29:51;;;;;;;29.40;18.30;;;;;;;;;;103630;1292;544907;-72
2023/12/30 15:33:30;;;;;;;19.10;11.90;;;;;;;;;;103913;1289;544623;-73
2023/12/30 15:37:06;;;;;;;39.10;22.00;;;;;;;;;;103745;1292;546054;-69
2023/12/30 15:40:44;;;;;;;28.20;16.00;;;;;;;;;;103917;1289;545505;-70
2023/12/30 15:44:21;;;;;;;24.70;13.30;;;;;;;;;;103986;1289;545597;-73
2023/12/30 15:47:59;;;;;;;12.50;6.10;;;;;;;;;;103761;1292;545043;-73
2023/12/30 15:51:32;;;;;;;9.40;4.00;;;;;;;;;;103820;1295;546116;-71
2023/12/30 15:55:14;;;;;;;8.10;3.30;;;;;;;;;;103853;1289;545932;-70
2023/12/30 15:58:52;;;;;;;8.90;3.40;;;;;;;;;;103779;1291;544756;-71
2023/12/30 16:02:28;;;;;;;14.10;5.80;;;;;;;;;;103924;1292;545916;-70
2023/12/30 16:06:06;;;;;;;10.20;3.30;;;;;;;;;;103708;1292;545636;-70
2023/12/30 16:09:43;;;;;;;10.30;4.30;;;;;;;;;;103760;1292;544977;-71
2023/12/30 16:13:21;;;;;;;8.20;3.00;;;;;;;;;;103827;1301;545544;-71
2023/12/30 16:16:55;;;;;;;16.40;8.50;;;;;;;;;;104358;1288;544740;-71
2023/12/30 16:20:32;;;;;;;10.60;4.60;;;;;;;;;;104076;1289;544982;-71
2023/12/30 16:24:14;;;;;;;7.60;2.30;;;;;;;;;;103896;1292;544974;-70
2023/12/30 16:27:51;;;;;;;12.50;5.90;;;;;;;;;;103736;1290;545120;-70
2023/12/30 16:31:28;;;;;;;20.80;11.00;;;;;;;;;;103956;1289;544817;-72
2023/12/30 16:35:04;;;;;;;17.80;10.00;;;;;;;;;;103999;1293;544990;-69
2023/12/30 16:38:45;;;;;;;14.80;8.50;;;;;;;;;;103944;1289;545039;-73
2023/12/30 16:42:23;;;;;;;14.40;6.20;;;;;;;;;;103810;1294;545531;-71
2023/12/30 16:46:00;;;;;;;17.60;7.60;;;;;;;;;;103782;1302;544787;-70
2023/12/30 16:49:37;;;;;;;13.00;5.20;;;;;;;;;;104632;1283;544779;-71
2023/12/30 16:53:14;;;;;;;9.40;4.00;;;;;;;;;;103861;1290;544861;-71
2023/12/30 16:56:52;;;;;;;9.20;3.80;;;;;;;;;;103765;1288;544839;-73
2023/12/30 17:00:30;;;;;;;8.70;4.30;;;;;;;;;;103657;1292;544824;-72
2023/12/30 17:04:07;;;;;;;9.00;3.90;;;;;;;;;;103718;1291;545910;-71
2023/12/30 17:07:44;;;;;;;8.60;3.70;;;;;;;;;;103642;1291;544976;-72
2023/12/30 17:11:22;;;;;;;8.30;4.10;;;;;;;;;;103868;1292;545105;-71
2023/12/30 17:14:59;;;;;;;7.60;2.90;;;;;;;;;;103675;1289;545546;-70
2023/12/30 17:18:33;;;;;;;6.50;2.70;;;;;;;;;;103902;1289;545820;-72
2023/12/30 17:22:14;;;;;;;49.40;19.60;;;;;;;;;;103974;1296;544916;-70
2023/12/30 17:25:52;;;;;;;45.60;16.20;;;;;;;;;;103774;1302;546283;-71
2023/12/30 17:29:29;;;;;;;41.20;15.50;;;;;;;;;;103807;1291;546043;-70
2023/12/30 17:33:06;;;;;;;29.60;11.30;;;;;;;;;;103543;1291;544880;-69
2023/12/30 17:36:44;;;;;;;16.00;5.80;;;;;;;;;;103950;1289;544942;-70
2023/12/30 17:40:18;;;;;;;25.30;9.90;;;;;;;;;;103930;1289;545043;-72
2023/12/30 17:43:59;;;;;;;36.60;15.90;;;;;;;;;;103793;1289;545371;-71
2023/12/30 17:47:36;;;;;;;26.80;12.40;;;;;;;;;;103754;1291;544973;-70
2023/12/30 17:51:14;;;;;;;14.80;6.60;;;;;;;;;;104020;1288;544951;-69
2023/12/30 17:54:51;;;;;;;26.00;12.10;;;;;;;;;;103744;1291;545059;-71
2023/12/30 17:58:30;;;;;;;33.50;14.70;;;;;;;;;;103783;1293;544785;-72
2023/12/30 18:02:06;;;;;;;29.20;12.20;;;;;;;;;;103708;1292;545408;-70
2023/12/30 18:05:43;;;;;;;12.70;5.00;;;;;;;;;;104052;1289;545037;-72
2023/12/30 18:09:20;;;;;;;14.20;5.30;;;;;;;;;;104224;1289;545462;-72
2023/12/30 18:12:58;;;;;;;15.00;6.40;;;;;;;;;;103769;1292;545046;-71
2023/12/30 18:16:36;;;;;;;13.30;6.60;;;;;;;;;;103853;1297;545963;-70
2023/12/30 18:20:10;;;;;;;13.80;6.30;;;;;;;;;;103680;1294;545163;-72
2023/12/30 18:23:51;;;;;;;12.00;5.40;;;;;;;;;;103774;1298;546662;-73
2023/12/30 18:27:29;;;;;;;9.50;3.30;;;;;;;;;;103793;1292;545933;-72
2023/12/30 18:31:05;;;;;;;19.20;10.70;;;;;;;;;;103843;1289;544985;-72
2023/12/30 18:34:43;;;;;;;18.00;12.60;;;;;;;;;;103714;1291;544899;-70
2023/12/30 18:38:21;;;;;;;13.00;8.00;;;;;;;;;;103749;1289;544927;-71
2023/12/30 18:41:58;;;;;;;18.50;12.60;;;;;;;;;;103788;1294;545527;-72
2023/12/30 18:45:36;;;;;;;11.20;5.50;;;;;;;;;;103883;1289;544793;-69
2023/12/30 18:49:13;;;;;;;34.30;17.20;;;;;;;;;;103607;1292;545205;-72
2023/12/30 18:52:49;;;;;;;22.50;14.70;;;;;;;;;;103490;1291;545606;-72
2023/12/30 18:56:30;;;;;;;25.50;18.50;;;;;;;;;;103664;1295;545381;-69
2023/12/30 19:00:07;;;;;;;21.00;12.40;;;;;;;;;;103518;1292;545608;-71
2023/12/30 19:03:47;;;;;;;27.60;16.70;;;;;;;;;;103872;1291;545447;-71
2023/12/30 19:07:18;;;;;;;16.90;8.30;;;;;;;;;;103840;1292;545579;-69
2023/12/30 19:10:56;;;;;;;10.90;4.50;;;;;;;;;;104089;1290;545578;-70
2023/12/30 19:14:37;;;;;;;13.80;7.20;;;;;;;;;;103925;1289;545029;-72
2023/12/30 19:18:11;;;;;;;13.00;5.80;;;;;;;;;;103805;1295;544657;-72
2023/12/30 19:21:52;;;;;;;9.30;3.50;;;;;;;;;;104000;1292;545127;-69
2023/12/30 19:25:35;;;;;;;7.00;3.10;;;;;;;;;;103465;1289;545018;-69
2023/12/30 19:29:07;;;;;;;8.40;3.30;;;;;;;;;;103839;1290;545097;-72
2023/12/30 19:32:40;;;;;;;8.80;4.40;;;;;;;;;;103847;1292;544986;-71
2023/12/30 19:36:24;;;;;;;9.80;4.40;;;;;;;;;;104212;1283;545316;-71
2023/12/30 19:39:59;;;;;;;11.20;5.30;;;;;;;;;;103831;1289;545045;-72
2023/12/30 19:43:37;;;;;;;17.10;8.50;;;;;;;;;;103891;1295;544873;-72
2023/12/30 19:47:14;;;;;;;36.80;20.10;;;;;;;;;;103647;1294;545211;-71
2023/12/30 19:50:48;;;;;;;28.60;12.50;;;;;;;;;;103934;1289;544929;-73
2023/12/30 19:54:29;;;;;;;22.60;9.40;;;;;;;;;;103916;1289;545328;-70
2023/12/30 19:58:07;;;;;;;16.30;7.80;;;;;;;;;;103929;1292;544871;-69
2023/12/30 20:01:44;;;;;;;18.20;9.40;;;;;;;;;;104005;1289;545313;-70
2023/12/30 20:05:22;;;;;;;18.40;10.00;;;;;;;;;;103747;1293;545623;-72
2023/12/30 20:08:59;;;;;;;37.80;22.90;;;;;;;;;;104295;1286;545520;-72
2023/12/30 20:12:37;;;;;;;33.50;17.00;;;;;;;;;;103814;1292;544745;-72
2023/12/30 20:16:14;;;;;;;27.80;11.40;;;;;;;;;;103668;1291;544825;-72
2023/12/30 20:19:51;;;;;;;22.50;10.60;;;;;;;;;;103626;1289;544850;-71
2023/12/30 20:23:31;;;;;;;17.40;7.90;;;;;;;;;;103868;1291;544765;-70
2023/12/30 20:27:10;;;;;;;17.30;7.60;;;;;;;;;;103805;1289;544916;-71
2023/12/30 20:30:43;;;;;;;15.90;6.70;;;;;;;;;;103811;1292;545463;-72
2023/12/30 20:34:22;;;;;;;12.70;5.50;;;;;;;;;;103758;1291;546149;-72
2023/12/30 20:38:02;;;;;;;14.10;6.00;;;;;;;;;;103561;1295;545658;-69
2023/12/30 20:41:40;;;;;;;14.10;6.60;;;;;;;;;;103781;1292;544763;-72
2023/12/30 20:45:14;;;;;;;15.60;6.90;;;;;;;;;;103717;1292;545087;-71
2023/12/30 20:48:51;;;;;;;16.80;8.10;;;;;;;;;;103740;1289;544807;-72
2023/12/30 20:52:30;;;;;;;21.60;11.40;;;;;;;;;;103905;1295;544696;-72
2023/12/30 20:56:06;;;;;;;34.20;16.60;;;;;;;;;;103534;1293;545088;-72
2023/12/30 20:59:44;;;;;;;31.00;16.40;;;;;;;;;;103824;1296;545377;-70